NKS3030 KMIA-KATL
Flight info
| Callsign | NKS3030 |
|---|---|
| Flight time | 1h 28m |
| Altitude | 36000 |
| Route | FLMGO2 STYMY Q77 MJAMS/N0451F350 Q77 SHRKS/N0454F360 LAIRI LARZZ JJEDI4 |
| Aircraft | A321/M-SDE3FGHIRWY/LB1 |
Departure
| Time | 2026-05-04 22:09 |
|---|---|
| Airport | Miami International Airport (KMIA) |
Arrival
| Time | 2026-05-04 23:38 |
|---|---|
| Airport | Hartsfield Jackson Atlanta International Airport (KATL) |
| Time | Latitude | Longitude | Altitude | Speed | Heading |
|---|---|---|---|---|---|
| 2026-05-04 21:15 | 25.79076 | -80.27616 | 15 ft | 0 kts | 267° |
| 2026-05-04 21:59 | 25.79076 | -80.27614 | 15 ft | 2 kts | 267° |
| 2026-05-04 21:59 | 25.79077 | -80.27585 | 15 ft | 4 kts | 267° |
| 2026-05-04 21:59 | 25.79079 | -80.27560 | 15 ft | 4 kts | 250° |
| 2026-05-04 21:59 | 25.79093 | -80.27542 | 17 ft | 4 kts | 188° |
| 2026-05-04 22:00 | 25.79113 | -80.27541 | 16 ft | 1 kts | 177° |
| 2026-05-04 22:00 | 25.79116 | -80.27541 | 15 ft | 0 kts | 177° |
| 2026-05-04 22:03 | 25.79104 | -80.27541 | 15 ft | 7 kts | 177° |
| 2026-05-04 22:03 | 25.78997 | -80.27535 | 15 ft | 24 kts | 177° |
| 2026-05-04 22:04 | 25.78965 | -80.27534 | 15 ft | 2 kts | 178° |
| 2026-05-04 22:04 | 25.78901 | -80.27554 | 15 ft | 16 kts | 226° |
| 2026-05-04 22:04 | 25.78881 | -80.27689 | 15 ft | 28 kts | 269° |
| 2026-05-04 22:04 | 25.78871 | -80.27926 | 16 ft | 25 kts | 277° |
| 2026-05-04 22:05 | 25.78962 | -80.28124 | 16 ft | 32 kts | 300° |
| 2026-05-04 22:05 | 25.79075 | -80.28344 | 16 ft | 24 kts | 300° |
| 2026-05-04 22:05 | 25.79163 | -80.28486 | 15 ft | 22 kts | 301° |
| 2026-05-04 22:05 | 25.79234 | -80.28628 | 15 ft | 20 kts | 300° |
| 2026-05-04 22:06 | 25.79305 | -80.28766 | 14 ft | 21 kts | 299° |
| 2026-05-04 22:06 | 25.79377 | -80.28907 | 15 ft | 21 kts | 300° |
| 2026-05-04 22:06 | 25.79451 | -80.29050 | 15 ft | 21 kts | 300° |
| 2026-05-04 22:06 | 25.79525 | -80.29195 | 15 ft | 22 kts | 299° |
| 2026-05-04 22:07 | 25.79600 | -80.29342 | 15 ft | 22 kts | 300° |
| 2026-05-04 22:07 | 25.79677 | -80.29493 | 15 ft | 23 kts | 300° |
| 2026-05-04 22:07 | 25.79754 | -80.29644 | 14 ft | 19 kts | 299° |
| 2026-05-04 22:07 | 25.79792 | -80.29719 | 14 ft | 11 kts | 300° |
| 2026-05-04 22:08 | 25.79833 | -80.29797 | 14 ft | 12 kts | 300° |
| 2026-05-04 22:08 | 25.79885 | -80.29899 | 14 ft | 20 kts | 299° |
| 2026-05-04 22:08 | 25.79984 | -80.30087 | 14 ft | 19 kts | 300° |
| 2026-05-04 22:08 | 25.80067 | -80.30094 | 15 ft | 16 kts | 64° |
| 2026-05-04 22:09 | 25.80084 | -80.29828 | 13 ft | 71 kts | 87° |
| 2026-05-04 22:09 | 25.80124 | -80.28993 | 18 ft | 143 kts | 86° |
| 2026-05-04 22:09 | 25.80185 | -80.27697 | 281 ft | 182 kts | 86° |
| 2026-05-04 22:09 | 25.80286 | -80.26263 | 1061 ft | 190 kts | 80° |
| 2026-05-04 22:10 | 25.80412 | -80.24807 | 1858 ft | 186 kts | 81° |
| 2026-05-04 22:10 | 25.80474 | -80.23864 | 2217 ft | 186 kts | 84° |
| 2026-05-04 22:10 | 25.80522 | -80.22356 | 2391 ft | 205 kts | 84° |
| 2026-05-04 22:10 | 25.80562 | -80.20687 | 2493 ft | 229 kts | 86° |
| 2026-05-04 22:11 | 25.80647 | -80.18197 | 2974 ft | 251 kts | 79° |
| 2026-05-04 22:11 | 25.81360 | -80.16454 | 3637 ft | 254 kts | 45° |
| 2026-05-04 22:11 | 25.82338 | -80.15691 | 4065 ft | 258 kts | 21° |
| 2026-05-04 22:11 | 25.84084 | -80.15280 | 4723 ft | 263 kts | 4° |
| 2026-05-04 22:12 | 25.85928 | -80.15272 | 5477 ft | 267 kts | 355° |
| 2026-05-04 22:12 | 25.87799 | -80.15379 | 6251 ft | 272 kts | 354° |
| 2026-05-04 22:12 | 25.90297 | -80.15882 | 7196 ft | 275 kts | 335° |
| 2026-05-04 22:12 | 25.91482 | -80.16405 | 7658 ft | 278 kts | 336° |
| 2026-05-04 22:13 | 25.93322 | -80.17138 | 8343 ft | 283 kts | 338° |
| 2026-05-04 22:13 | 25.95208 | -80.17817 | 9014 ft | 287 kts | 338° |
| 2026-05-04 22:13 | 25.97122 | -80.18474 | 9710 ft | 289 kts | 338° |
| 2026-05-04 22:13 | 25.98960 | -80.19346 | 10284 ft | 286 kts | 323° |
| 2026-05-04 22:14 | 26.00543 | -80.20691 | 10729 ft | 294 kts | 314° |
| 2026-05-04 22:14 | 26.02131 | -80.22257 | 10866 ft | 315 kts | 313° |
| 2026-05-04 22:14 | 26.03811 | -80.23936 | 11102 ft | 331 kts | 314° |
| 2026-05-04 22:14 | 26.05541 | -80.25665 | 11641 ft | 337 kts | 314° |
| 2026-05-04 22:15 | 26.07294 | -80.27411 | 12239 ft | 340 kts | 313° |
| 2026-05-04 22:15 | 26.09040 | -80.29150 | 12825 ft | 342 kts | 313° |
| 2026-05-04 22:15 | 26.10824 | -80.30924 | 13418 ft | 345 kts | 313° |
| 2026-05-04 22:15 | 26.12615 | -80.32703 | 13986 ft | 347 kts | 313° |
| 2026-05-04 22:16 | 26.14425 | -80.34500 | 14519 ft | 349 kts | 313° |
| 2026-05-04 22:16 | 26.16242 | -80.36306 | 15068 ft | 351 kts | 313° |
| 2026-05-04 22:16 | 26.18071 | -80.38125 | 15596 ft | 353 kts | 313° |
| 2026-05-04 22:16 | 26.19910 | -80.39955 | 16125 ft | 355 kts | 313° |
| 2026-05-04 22:17 | 26.21761 | -80.41787 | 16659 ft | 358 kts | 315° |
| 2026-05-04 22:17 | 26.23844 | -80.43370 | 17165 ft | 367 kts | 326° |
| 2026-05-04 22:17 | 26.26166 | -80.44616 | 17687 ft | 372 kts | 329° |
| 2026-05-04 22:17 | 26.28513 | -80.45852 | 18190 ft | 374 kts | 329° |
| 2026-05-04 22:18 | 26.30837 | -80.47085 | 18638 ft | 376 kts | 328° |
| 2026-05-04 22:18 | 26.33208 | -80.48349 | 19087 ft | 379 kts | 328° |
| 2026-05-04 22:18 | 26.35595 | -80.49624 | 19516 ft | 381 kts | 328° |
| 2026-05-04 22:18 | 26.38001 | -80.50906 | 19934 ft | 384 kts | 328° |
| 2026-05-04 22:19 | 26.40423 | -80.52195 | 20357 ft | 387 kts | 328° |
| 2026-05-04 22:19 | 26.42859 | -80.53494 | 20777 ft | 390 kts | 328° |
| 2026-05-04 22:19 | 26.45311 | -80.54801 | 21252 ft | 391 kts | 328° |
| 2026-05-04 22:19 | 26.47775 | -80.56100 | 21691 ft | 394 kts | 330° |
| 2026-05-04 22:20 | 26.50404 | -80.57093 | 22097 ft | 403 kts | 338° |
| 2026-05-04 22:20 | 26.53111 | -80.57944 | 22499 ft | 405 kts | 337° |
| 2026-05-04 22:20 | 26.55831 | -80.58805 | 22925 ft | 407 kts | 337° |
| 2026-05-04 22:20 | 26.58534 | -80.59663 | 23333 ft | 409 kts | 338° |
| 2026-05-04 22:21 | 26.61276 | -80.60536 | 23708 ft | 411 kts | 338° |
| 2026-05-04 22:21 | 26.64035 | -80.61413 | 24026 ft | 413 kts | 337° |
| 2026-05-04 22:21 | 26.66802 | -80.62295 | 24352 ft | 415 kts | 337° |
| 2026-05-04 22:21 | 26.69591 | -80.63185 | 24676 ft | 417 kts | 337° |
| 2026-05-04 22:22 | 26.72390 | -80.64076 | 24999 ft | 419 kts | 337° |
| 2026-05-04 22:22 | 26.75200 | -80.64967 | 25323 ft | 421 kts | 337° |
| 2026-05-04 22:22 | 26.78023 | -80.65863 | 25646 ft | 423 kts | 337° |
| 2026-05-04 22:22 | 26.80856 | -80.66765 | 25966 ft | 424 kts | 337° |
| 2026-05-04 22:23 | 26.83704 | -80.67674 | 26280 ft | 426 kts | 337° |
| 2026-05-04 22:23 | 26.86522 | -80.68578 | 26600 ft | 428 kts | 337° |
| 2026-05-04 22:23 | 26.89397 | -80.69500 | 26919 ft | 431 kts | 336° |
| 2026-05-04 22:23 | 26.92281 | -80.70436 | 27216 ft | 432 kts | 335° |
| 2026-05-04 22:24 | 26.95143 | -80.71448 | 27519 ft | 432 kts | 334° |
| 2026-05-04 22:24 | 26.97997 | -80.72527 | 27823 ft | 433 kts | 333° |
| 2026-05-04 22:24 | 27.00844 | -80.73641 | 28126 ft | 435 kts | 333° |
| 2026-05-04 22:24 | 27.03710 | -80.74768 | 28420 ft | 436 kts | 333° |
| 2026-05-04 22:25 | 27.06585 | -80.75889 | 28706 ft | 438 kts | 333° |
| 2026-05-04 22:25 | 27.09474 | -80.76998 | 28984 ft | 440 kts | 333° |
| 2026-05-04 22:25 | 27.12388 | -80.78103 | 29257 ft | 442 kts | 333° |
| 2026-05-04 22:25 | 27.15306 | -80.79205 | 29535 ft | 444 kts | 333° |
| 2026-05-04 22:26 | 27.18238 | -80.80311 | 29854 ft | 445 kts | 334° |
| 2026-05-04 22:26 | 27.21133 | -80.81402 | 30190 ft | 445 kts | 334° |
| 2026-05-04 22:26 | 27.24074 | -80.82514 | 30462 ft | 445 kts | 334° |
| 2026-05-04 22:26 | 27.27011 | -80.83631 | 30782 ft | 445 kts | 333° |
| 2026-05-04 22:27 | 27.29948 | -80.84751 | 31076 ft | 445 kts | 333° |
| 2026-05-04 22:27 | 27.32879 | -80.85877 | 31365 ft | 445 kts | 333° |
| 2026-05-04 22:27 | 27.35799 | -80.87035 | 31649 ft | 444 kts | 332° |
| 2026-05-04 22:27 | 27.38707 | -80.88225 | 31932 ft | 444 kts | 332° |
| 2026-05-04 22:28 | 27.41569 | -80.89418 | 32219 ft | 444 kts | 332° |
| 2026-05-04 22:28 | 27.44469 | -80.90636 | 32516 ft | 445 kts | 331° |
| 2026-05-04 22:28 | 27.47368 | -80.91848 | 32825 ft | 444 kts | 332° |
| 2026-05-04 22:28 | 27.50260 | -80.93051 | 33112 ft | 444 kts | 332° |
| 2026-05-04 22:29 | 27.53163 | -80.94251 | 33397 ft | 444 kts | 332° |
| 2026-05-04 22:29 | 27.56066 | -80.95445 | 33666 ft | 444 kts | 332° |
| 2026-05-04 22:29 | 27.58974 | -80.96637 | 33936 ft | 445 kts | 332° |
| 2026-05-04 22:29 | 27.61883 | -80.97828 | 34173 ft | 445 kts | 332° |
| 2026-05-04 22:30 | 27.64796 | -80.99023 | 34421 ft | 444 kts | 332° |
| 2026-05-04 22:30 | 27.67699 | -81.00218 | 34681 ft | 444 kts | 332° |
| 2026-05-04 22:30 | 27.70592 | -81.01411 | 34937 ft | 443 kts | 332° |
| 2026-05-04 22:31 | 27.76368 | -81.03808 | 35046 ft | 442 kts | 332° |
| 2026-05-04 22:31 | 27.82098 | -81.06191 | 35043 ft | 441 kts | 331° |
| 2026-05-04 22:32 | 27.87862 | -81.08576 | 35045 ft | 441 kts | 331° |
| 2026-05-04 22:32 | 27.93623 | -81.10969 | 35054 ft | 441 kts | 331° |
| 2026-05-04 22:33 | 27.99385 | -81.13369 | 35056 ft | 441 kts | 331° |
| 2026-05-04 22:33 | 28.05124 | -81.15805 | 35062 ft | 439 kts | 329° |
| 2026-05-04 22:34 | 28.10649 | -81.18559 | 35067 ft | 435 kts | 327° |
| 2026-05-04 22:34 | 28.16101 | -81.21492 | 35069 ft | 434 kts | 327° |
| 2026-05-04 22:35 | 28.21584 | -81.24394 | 35071 ft | 435 kts | 327° |
| 2026-05-04 22:35 | 28.27096 | -81.27234 | 35071 ft | 435 kts | 328° |
| 2026-05-04 22:36 | 28.32606 | -81.30060 | 35071 ft | 433 kts | 328° |
| 2026-05-04 22:36 | 28.38063 | -81.32860 | 35075 ft | 433 kts | 328° |
| 2026-05-04 22:37 | 28.43558 | -81.35671 | 35070 ft | 432 kts | 328° |
| 2026-05-04 22:37 | 28.49047 | -81.38472 | 35073 ft | 432 kts | 328° |
| 2026-05-04 22:38 | 28.54534 | -81.41282 | 35074 ft | 432 kts | 328° |
| 2026-05-04 22:38 | 28.59981 | -81.44070 | 35073 ft | 432 kts | 328° |
| 2026-05-04 22:39 | 28.65469 | -81.46882 | 35074 ft | 432 kts | 328° |
| 2026-05-04 22:39 | 28.70948 | -81.49695 | 35084 ft | 431 kts | 328° |
| 2026-05-04 22:40 | 28.76418 | -81.52510 | 35067 ft | 430 kts | 328° |
| 2026-05-04 22:40 | 28.81834 | -81.55309 | 35069 ft | 430 kts | 328° |
| 2026-05-04 22:41 | 28.87292 | -81.58126 | 35070 ft | 430 kts | 328° |
| 2026-05-04 22:41 | 28.92869 | -81.60668 | 35070 ft | 439 kts | 339° |
| 2026-05-04 22:42 | 28.99003 | -81.61512 | 35103 ft | 449 kts | 348° |
| 2026-05-04 22:42 | 29.05228 | -81.62060 | 35074 ft | 448 kts | 348° |
| 2026-05-04 22:43 | 29.11438 | -81.62629 | 35077 ft | 447 kts | 348° |
| 2026-05-04 22:43 | 29.17649 | -81.63199 | 35076 ft | 447 kts | 348° |
| 2026-05-04 22:44 | 29.23851 | -81.63771 | 35079 ft | 447 kts | 348° |
| 2026-05-04 22:44 | 29.30020 | -81.64337 | 35085 ft | 447 kts | 348° |
| 2026-05-04 22:45 | 29.36215 | -81.64905 | 35075 ft | 446 kts | 348° |
| 2026-05-04 22:45 | 29.45455 | -81.65755 | 35082 ft | 442 kts | 348° |
| 2026-05-04 22:46 | 29.51600 | -81.66313 | 35087 ft | 443 kts | 348° |
| 2026-05-04 22:46 | 29.57747 | -81.66885 | 35111 ft | 444 kts | 347° |
| 2026-05-04 22:47 | 29.63916 | -81.67456 | 35084 ft | 445 kts | 347° |
| 2026-05-04 22:47 | 29.70088 | -81.68026 | 35091 ft | 445 kts | 347° |
| 2026-05-04 22:48 | 29.76215 | -81.68593 | 35088 ft | 445 kts | 347° |
| 2026-05-04 22:48 | 29.82398 | -81.69165 | 35091 ft | 445 kts | 347° |
| 2026-05-04 22:49 | 29.88567 | -81.69740 | 35085 ft | 445 kts | 347° |
| 2026-05-04 22:49 | 29.94738 | -81.70317 | 35088 ft | 445 kts | 347° |
| 2026-05-04 22:50 | 30.00866 | -81.70886 | 35089 ft | 445 kts | 347° |
| 2026-05-04 22:50 | 30.07037 | -81.71456 | 35091 ft | 445 kts | 347° |
| 2026-05-04 22:51 | 30.13207 | -81.72032 | 35091 ft | 445 kts | 347° |
| 2026-05-04 22:51 | 30.19378 | -81.72607 | 35090 ft | 443 kts | 347° |
| 2026-05-04 22:52 | 30.25494 | -81.73175 | 35091 ft | 443 kts | 347° |
| 2026-05-04 22:52 | 30.31644 | -81.73751 | 35091 ft | 443 kts | 347° |
| 2026-05-04 22:53 | 30.37787 | -81.74325 | 35087 ft | 443 kts | 347° |
| 2026-05-04 22:53 | 30.43937 | -81.74902 | 35082 ft | 443 kts | 347° |
| 2026-05-04 22:54 | 30.50080 | -81.75487 | 35082 ft | 443 kts | 347° |
| 2026-05-04 22:54 | 30.56185 | -81.76066 | 35082 ft | 443 kts | 347° |
| 2026-05-04 22:55 | 30.62232 | -81.77012 | 35087 ft | 430 kts | 335° |
| 2026-05-04 22:55 | 30.67614 | -81.79696 | 35092 ft | 419 kts | 326° |
| 2026-05-04 22:56 | 30.72825 | -81.82716 | 35109 ft | 416 kts | 325° |
| 2026-05-04 22:56 | 30.77988 | -81.85691 | 35121 ft | 413 kts | 325° |
| 2026-05-04 22:57 | 30.83127 | -81.88673 | 35091 ft | 412 kts | 325° |
| 2026-05-04 22:57 | 30.88232 | -81.91631 | 35092 ft | 413 kts | 325° |
| 2026-05-04 22:58 | 30.93374 | -81.94608 | 35091 ft | 412 kts | 325° |
| 2026-05-04 22:58 | 30.98512 | -81.97595 | 35103 ft | 412 kts | 325° |
| 2026-05-04 22:59 | 31.03648 | -82.00588 | 35106 ft | 412 kts | 325° |
| 2026-05-04 22:59 | 31.08747 | -82.03566 | 35078 ft | 412 kts | 325° |
| 2026-05-04 23:00 | 31.13874 | -82.06560 | 35073 ft | 412 kts | 325° |
| 2026-05-04 23:00 | 31.19002 | -82.09561 | 35064 ft | 412 kts | 325° |
| 2026-05-04 23:01 | 31.24137 | -82.12563 | 35074 ft | 412 kts | 325° |
| 2026-05-04 23:01 | 31.29272 | -82.15564 | 35102 ft | 413 kts | 325° |
| 2026-05-04 23:02 | 31.34409 | -82.18578 | 35056 ft | 413 kts | 325° |
| 2026-05-04 23:02 | 31.39509 | -82.21572 | 35057 ft | 413 kts | 325° |
| 2026-05-04 23:03 | 31.44645 | -82.24589 | 35057 ft | 413 kts | 325° |
| 2026-05-04 23:03 | 31.49775 | -82.27613 | 35058 ft | 413 kts | 325° |
| 2026-05-04 23:04 | 31.54909 | -82.30640 | 35059 ft | 413 kts | 325° |
| 2026-05-04 23:04 | 31.60055 | -82.33672 | 35057 ft | 414 kts | 326° |
| 2026-05-04 23:05 | 31.65212 | -82.36719 | 35060 ft | 415 kts | 326° |
| 2026-05-04 23:05 | 31.70336 | -82.39753 | 35061 ft | 415 kts | 326° |
| 2026-05-04 23:06 | 31.75479 | -82.42791 | 35053 ft | 413 kts | 326° |
| 2026-05-04 23:06 | 31.80593 | -82.45820 | 35054 ft | 412 kts | 326° |
| 2026-05-04 23:07 | 31.85711 | -82.48861 | 35102 ft | 412 kts | 327° |
| 2026-05-04 23:07 | 31.90868 | -82.51938 | 35058 ft | 417 kts | 327° |
| 2026-05-04 23:08 | 31.96010 | -82.55118 | 35056 ft | 414 kts | 321° |
| 2026-05-04 23:08 | 32.00398 | -82.59319 | 35053 ft | 408 kts | 314° |
| 2026-05-04 23:09 | 32.04689 | -82.63704 | 35056 ft | 408 kts | 314° |
| 2026-05-04 23:09 | 32.06834 | -82.65890 | 34909 ft | 405 kts | 314° |
| 2026-05-04 23:09 | 32.08947 | -82.68036 | 34675 ft | 397 kts | 314° |
| 2026-05-04 23:10 | 32.11029 | -82.70156 | 34305 ft | 395 kts | 314° |
| 2026-05-04 23:10 | 32.13123 | -82.72302 | 33518 ft | 400 kts | 314° |
| 2026-05-04 23:10 | 32.15230 | -82.74469 | 32745 ft | 404 kts | 314° |
| 2026-05-04 23:10 | 32.17339 | -82.76638 | 31978 ft | 408 kts | 315° |
| 2026-05-04 23:11 | 32.19490 | -82.78844 | 31225 ft | 411 kts | 315° |
| 2026-05-04 23:11 | 32.21655 | -82.81059 | 30473 ft | 408 kts | 315° |
| 2026-05-04 23:11 | 32.23768 | -82.83211 | 29684 ft | 395 kts | 315° |
| 2026-05-04 23:11 | 32.25817 | -82.85297 | 28846 ft | 382 kts | 315° |
| 2026-05-04 23:12 | 32.27801 | -82.87323 | 28051 ft | 372 kts | 315° |
| 2026-05-04 23:12 | 32.29730 | -82.89304 | 27268 ft | 364 kts | 315° |
| 2026-05-04 23:12 | 32.31626 | -82.91261 | 26527 ft | 358 kts | 315° |
| 2026-05-04 23:12 | 32.33521 | -82.93222 | 25776 ft | 365 kts | 315° |
| 2026-05-04 23:13 | 32.35425 | -82.95195 | 25058 ft | 372 kts | 315° |
| 2026-05-04 23:13 | 32.37392 | -82.97225 | 24388 ft | 378 kts | 315° |
| 2026-05-04 23:13 | 32.39362 | -82.99247 | 24131 ft | 371 kts | 315° |
| 2026-05-04 23:13 | 32.41286 | -83.01212 | 24027 ft | 359 kts | 315° |
| 2026-05-04 23:14 | 32.43144 | -83.03110 | 24072 ft | 350 kts | 315° |
| 2026-05-04 23:14 | 32.44978 | -83.04992 | 24052 ft | 348 kts | 315° |
| 2026-05-04 23:14 | 32.46805 | -83.06873 | 23960 ft | 346 kts | 315° |
| 2026-05-04 23:14 | 32.48613 | -83.08739 | 23555 ft | 344 kts | 315° |
| 2026-05-04 23:15 | 32.50410 | -83.10596 | 23073 ft | 342 kts | 315° |
| 2026-05-04 23:15 | 32.52202 | -83.12444 | 22601 ft | 340 kts | 315° |
| 2026-05-04 23:15 | 32.53384 | -83.13663 | 22296 ft | 339 kts | 315° |
| 2026-05-04 23:15 | 32.55159 | -83.15497 | 21850 ft | 338 kts | 315° |
| 2026-05-04 23:16 | 32.57493 | -83.17917 | 21252 ft | 336 kts | 315° |
| 2026-05-04 23:16 | 32.59249 | -83.19739 | 20809 ft | 334 kts | 315° |
| 2026-05-04 23:16 | 32.60997 | -83.21553 | 20375 ft | 333 kts | 315° |
| 2026-05-04 23:16 | 32.62149 | -83.22751 | 20089 ft | 332 kts | 315° |
| 2026-05-04 23:17 | 32.63884 | -83.24552 | 19654 ft | 331 kts | 315° |
| 2026-05-04 23:17 | 32.65610 | -83.26343 | 19234 ft | 329 kts | 315° |
| 2026-05-04 23:17 | 32.67334 | -83.28131 | 18819 ft | 328 kts | 315° |
| 2026-05-04 23:17 | 32.69050 | -83.29913 | 18409 ft | 327 kts | 315° |
| 2026-05-04 23:18 | 32.70761 | -83.31690 | 17968 ft | 326 kts | 315° |
| 2026-05-04 23:18 | 32.72448 | -83.33438 | 17516 ft | 321 kts | 315° |
| 2026-05-04 23:18 | 32.74131 | -83.35186 | 17030 ft | 321 kts | 316° |
| 2026-05-04 23:18 | 32.75811 | -83.36936 | 16594 ft | 320 kts | 316° |
| 2026-05-04 23:19 | 32.77480 | -83.38677 | 16190 ft | 319 kts | 316° |
| 2026-05-04 23:19 | 32.79139 | -83.40413 | 15779 ft | 317 kts | 316° |
| 2026-05-04 23:19 | 32.80772 | -83.42120 | 15374 ft | 315 kts | 316° |
| 2026-05-04 23:19 | 32.82419 | -83.43839 | 15004 ft | 314 kts | 316° |
| 2026-05-04 23:20 | 32.84056 | -83.45547 | 14613 ft | 313 kts | 317° |
| 2026-05-04 23:20 | 32.85687 | -83.47249 | 14230 ft | 311 kts | 317° |
| 2026-05-04 23:20 | 32.87301 | -83.48938 | 14009 ft | 308 kts | 317° |
| 2026-05-04 23:20 | 32.88895 | -83.50623 | 13961 ft | 305 kts | 317° |
| 2026-05-04 23:21 | 32.90494 | -83.52303 | 13979 ft | 310 kts | 317° |
| 2026-05-04 23:21 | 32.92116 | -83.53996 | 14004 ft | 312 kts | 317° |
| 2026-05-04 23:21 | 32.93751 | -83.55703 | 14001 ft | 313 kts | 317° |
| 2026-05-04 23:21 | 32.95386 | -83.57412 | 13958 ft | 314 kts | 317° |
| 2026-05-04 23:22 | 32.97020 | -83.59118 | 13697 ft | 311 kts | 317° |
| 2026-05-04 23:22 | 32.98646 | -83.60818 | 13438 ft | 310 kts | 317° |
| 2026-05-04 23:22 | 33.00243 | -83.62488 | 13177 ft | 309 kts | 317° |
| 2026-05-04 23:22 | 33.01859 | -83.64178 | 12912 ft | 308 kts | 317° |
| 2026-05-04 23:23 | 33.03469 | -83.65865 | 12665 ft | 308 kts | 317° |
| 2026-05-04 23:23 | 33.05074 | -83.67552 | 12410 ft | 307 kts | 317° |
| 2026-05-04 23:23 | 33.06674 | -83.69232 | 12157 ft | 306 kts | 317° |
| 2026-05-04 23:23 | 33.08274 | -83.70911 | 11904 ft | 306 kts | 316° |
| 2026-05-04 23:24 | 33.09867 | -83.72584 | 11661 ft | 303 kts | 316° |
| 2026-05-04 23:24 | 33.11437 | -83.74236 | 11386 ft | 298 kts | 316° |
| 2026-05-04 23:24 | 33.12990 | -83.75872 | 11117 ft | 297 kts | 316° |
| 2026-05-04 23:24 | 33.14532 | -83.77497 | 10855 ft | 296 kts | 316° |
| 2026-05-04 23:25 | 33.16055 | -83.79105 | 10585 ft | 295 kts | 316° |
| 2026-05-04 23:25 | 33.17589 | -83.80726 | 10334 ft | 295 kts | 316° |
| 2026-05-04 23:25 | 33.19123 | -83.82348 | 10075 ft | 294 kts | 316° |
| 2026-05-04 23:25 | 33.20608 | -83.84019 | 9803 ft | 293 kts | 313° |
| 2026-05-04 23:26 | 33.22052 | -83.85734 | 9506 ft | 292 kts | 313° |
| 2026-05-04 23:26 | 33.23475 | -83.87458 | 9226 ft | 291 kts | 312° |
| 2026-05-04 23:26 | 33.24892 | -83.89180 | 8949 ft | 290 kts | 312° |
| 2026-05-04 23:26 | 33.26304 | -83.90888 | 8664 ft | 288 kts | 313° |
| 2026-05-04 23:27 | 33.27714 | -83.92583 | 8475 ft | 287 kts | 313° |
| 2026-05-04 23:27 | 33.29107 | -83.94250 | 8328 ft | 287 kts | 313° |
| 2026-05-04 23:27 | 33.30521 | -83.95936 | 8181 ft | 287 kts | 315° |
| 2026-05-04 23:27 | 33.31932 | -83.97622 | 8030 ft | 286 kts | 313° |
| 2026-05-04 23:28 | 33.33337 | -83.99303 | 7887 ft | 286 kts | 313° |
| 2026-05-04 23:28 | 33.34755 | -84.00964 | 7740 ft | 286 kts | 318° |
| 2026-05-04 23:28 | 33.36437 | -84.02237 | 7595 ft | 288 kts | 335° |
| 2026-05-04 23:28 | 33.38369 | -84.02882 | 7439 ft | 290 kts | 352° |
| 2026-05-04 23:29 | 33.40388 | -84.02966 | 7305 ft | 291 kts | 358° |
| 2026-05-04 23:29 | 33.42413 | -84.02997 | 7158 ft | 290 kts | 358° |
| 2026-05-04 23:29 | 33.44431 | -84.03034 | 6997 ft | 290 kts | 358° |
| 2026-05-04 23:29 | 33.46447 | -84.03095 | 6856 ft | 288 kts | 353° |
| 2026-05-04 23:30 | 33.48400 | -84.03448 | 6710 ft | 287 kts | 348° |
| 2026-05-04 23:30 | 33.50362 | -84.03898 | 6566 ft | 287 kts | 347° |
| 2026-05-04 23:30 | 33.52316 | -84.04378 | 6418 ft | 287 kts | 347° |
| 2026-05-04 23:30 | 33.54268 | -84.04864 | 6277 ft | 286 kts | 347° |
| 2026-05-04 23:31 | 33.56215 | -84.05344 | 6127 ft | 286 kts | 347° |
| 2026-05-04 23:31 | 33.58163 | -84.05818 | 6000 ft | 285 kts | 347° |
| 2026-05-04 23:31 | 33.60092 | -84.06324 | 5956 ft | 283 kts | 340° |
| 2026-05-04 23:31 | 33.61755 | -84.07481 | 5727 ft | 271 kts | 313° |
| 2026-05-04 23:32 | 33.62796 | -84.09270 | 5604 ft | 255 kts | 289° |
| 2026-05-04 23:32 | 33.63146 | -84.11257 | 5498 ft | 236 kts | 268° |
| 2026-05-04 23:32 | 33.63149 | -84.13170 | 5368 ft | 222 kts | 267° |
| 2026-05-04 23:32 | 33.63153 | -84.14897 | 5273 ft | 195 kts | 267° |
| 2026-05-04 23:33 | 33.63158 | -84.16402 | 5052 ft | 167 kts | 266° |
| 2026-05-04 23:33 | 33.63159 | -84.17737 | 4862 ft | 156 kts | 266° |
| 2026-05-04 23:33 | 33.63153 | -84.19027 | 4638 ft | 154 kts | 266° |
| 2026-05-04 23:33 | 33.63158 | -84.20304 | 4449 ft | 153 kts | 266° |
| 2026-05-04 23:34 | 33.63162 | -84.21579 | 4243 ft | 152 kts | 266° |
| 2026-05-04 23:34 | 33.63165 | -84.22847 | 4055 ft | 152 kts | 265° |
| 2026-05-04 23:34 | 33.63167 | -84.24119 | 3856 ft | 152 kts | 265° |
| 2026-05-04 23:34 | 33.63169 | -84.25373 | 3658 ft | 152 kts | 266° |
| 2026-05-04 23:35 | 33.63171 | -84.26641 | 3464 ft | 152 kts | 266° |
| 2026-05-04 23:35 | 33.63174 | -84.27904 | 3267 ft | 151 kts | 266° |
| 2026-05-04 23:35 | 33.63177 | -84.29168 | 3043 ft | 150 kts | 266° |
| 2026-05-04 23:35 | 33.63174 | -84.30422 | 2864 ft | 150 kts | 266° |
| 2026-05-04 23:36 | 33.63179 | -84.31674 | 2658 ft | 150 kts | 266° |
| 2026-05-04 23:36 | 33.63177 | -84.32919 | 2482 ft | 148 kts | 265° |
| 2026-05-04 23:36 | 33.63176 | -84.34147 | 2243 ft | 146 kts | 266° |
| 2026-05-04 23:36 | 33.63173 | -84.35371 | 2061 ft | 148 kts | 267° |
| 2026-05-04 23:37 | 33.63173 | -84.36595 | 1903 ft | 148 kts | 265° |
| 2026-05-04 23:37 | 33.63178 | -84.37821 | 1679 ft | 146 kts | 266° |
| 2026-05-04 23:37 | 33.63181 | -84.39053 | 1484 ft | 149 kts | 266° |
| 2026-05-04 23:37 | 33.63175 | -84.40278 | 1321 ft | 147 kts | 268° |
| 2026-05-04 23:38 | 33.63179 | -84.41489 | 1118 ft | 144 kts | 269° |
| 2026-05-04 23:38 | 33.63184 | -84.42646 | 1006 ft | 120 kts | 269° |
| 2026-05-04 23:38 | 33.63183 | -84.43293 | 1008 ft | 49 kts | 270° |
| 2026-05-04 23:38 | 33.63200 | -84.43543 | 1008 ft | 24 kts | 285° |
| 2026-05-04 23:39 | 33.63261 | -84.43706 | 1007 ft | 16 kts | 304° |
| 2026-05-04 23:39 | 33.63319 | -84.43825 | 1006 ft | 17 kts | 299° |
| 2026-05-04 23:39 | 33.63362 | -84.43962 | 1006 ft | 18 kts | 276° |
| 2026-05-04 23:39 | 33.63357 | -84.44116 | 1006 ft | 19 kts | 275° |
| 2026-05-04 23:40 | 33.63409 | -84.44191 | 1006 ft | 11 kts | 349° |
| 2026-05-04 23:40 | 33.63484 | -84.44192 | 1007 ft | 11 kts | 360° |
| 2026-05-04 23:40 | 33.63534 | -84.44192 | 1007 ft | 4 kts | 0° |
| 2026-05-04 23:40 | 33.63566 | -84.44192 | 1007 ft | 5 kts | 360° |
| 2026-05-04 23:41 | 33.63618 | -84.44190 | 1007 ft | 11 kts | 10° |
| 2026-05-04 23:41 | 33.63664 | -84.44080 | 1007 ft | 21 kts | 87° |
| 2026-05-04 23:41 | 33.63663 | -84.43884 | 1006 ft | 24 kts | 88° |
| 2026-05-04 23:41 | 33.63664 | -84.43679 | 1006 ft | 25 kts | 90° |
| 2026-05-04 23:42 | 33.63664 | -84.43499 | 1006 ft | 18 kts | 90° |
| 2026-05-04 23:42 | 33.63664 | -84.43347 | 1006 ft | 19 kts | 90° |
| 2026-05-04 23:42 | 33.63664 | -84.43196 | 1006 ft | 12 kts | 89° |
| 2026-05-04 23:42 | 33.63676 | -84.43095 | 1006 ft | 13 kts | 59° |
| 2026-05-04 23:43 | 33.63759 | -84.43063 | 1006 ft | 13 kts | 1° |
| 2026-05-04 23:43 | 33.63817 | -84.43034 | 1006 ft | 6 kts | 74° |
| 2026-05-04 23:43 | 33.63821 | -84.43001 | 1006 ft | 3 kts | 87° |
| 2026-05-04 23:43 | 33.63822 | -84.42991 | 1006 ft | 1 kts | 87° |
| 2026-05-04 23:44 | 33.63822 | -84.42989 | 1006 ft | 0 kts | 87° |